createdAt,value
2023-05-12T00:00:24.539Z,12.13
2023-05-12T00:12:24.442Z,12.11
2023-05-12T00:24:24.430Z,12.11
2023-05-12T00:36:24.434Z,12.10
2023-05-12T00:48:24.550Z,12.07
2023-05-12T01:00:24.553Z,12.07
2023-05-12T01:12:24.545Z,12.05
2023-05-12T01:24:24.429Z,12.03
2023-05-12T01:36:24.444Z,12.03
2023-05-12T01:48:24.430Z,12.01
2023-05-12T02:00:24.543Z,12.01
2023-05-12T02:12:24.435Z,12.00
2023-05-12T02:24:24.436Z,11.98
2023-05-12T02:36:24.521Z,11.97
2023-05-12T02:48:24.499Z,11.94
2023-05-12T03:00:24.431Z,11.95
2023-05-12T03:12:24.432Z,11.93
2023-05-12T03:24:24.453Z,11.92
2023-05-12T03:36:24.516Z,11.91
2023-05-12T03:48:24.546Z,11.89
2023-05-12T04:00:24.540Z,11.88
2023-05-12T04:12:24.453Z,11.87
2023-05-12T04:24:24.436Z,11.85
2023-05-12T04:36:24.533Z,11.85
2023-05-12T04:48:24.562Z,11.84
2023-05-12T05:00:24.452Z,11.83
2023-05-12T05:12:24.633Z,11.83
2023-05-12T05:24:24.426Z,11.82
2023-05-12T05:36:24.440Z,11.83
2023-05-12T05:48:24.523Z,11.87
2023-05-12T06:00:24.503Z,11.87
2023-05-12T06:12:24.559Z,11.86
2023-05-12T06:24:24.503Z,11.89
2023-05-12T06:36:24.527Z,11.91
2023-05-12T06:48:24.438Z,11.88
2023-05-12T07:00:24.427Z,11.88
2023-05-12T07:12:24.519Z,11.88
2023-05-12T07:24:24.432Z,11.89
2023-05-12T07:36:24.430Z,11.92
2023-05-12T07:48:24.538Z,11.96
2023-05-12T08:00:24.567Z,11.95
2023-05-12T08:12:24.521Z,12.08
2023-05-12T08:24:24.583Z,12.12
2023-05-12T08:36:24.437Z,12.30
2023-05-12T08:48:24.518Z,12.32
2023-05-12T09:00:24.616Z,12.38
2023-05-12T09:12:24.569Z,12.47
2023-05-12T09:24:24.431Z,12.53
2023-05-12T09:36:24.428Z,12.67
2023-05-12T09:48:27.407Z,12.78
2023-05-12T10:00:40.902Z,12.77
2023-05-12T10:12:24.525Z,12.78
2023-05-12T10:24:24.434Z,12.80
2023-05-12T10:36:24.489Z,12.78
2023-05-12T10:48:24.531Z,12.80
2023-05-12T11:00:25.128Z,12.79
2023-05-12T11:12:24.511Z,12.78
2023-05-12T11:24:24.430Z,12.79
2023-05-12T11:36:24.536Z,12.79
2023-05-12T11:48:24.529Z,12.79
2023-05-12T12:00:24.536Z,12.80
2023-05-12T12:12:24.550Z,12.79
2023-05-12T12:24:24.428Z,12.76
2023-05-12T12:36:24.442Z,12.74
2023-05-12T12:48:24.436Z,12.72
2023-05-12T13:00:24.571Z,12.72
2023-05-12T13:12:24.421Z,12.78
2023-05-12T13:24:24.437Z,12.80
2023-05-12T13:36:24.448Z,12.79
2023-05-12T13:48:24.696Z,12.80
2023-05-12T14:00:24.527Z,12.81
2023-05-12T14:12:24.427Z,12.79
2023-05-12T14:24:24.438Z,12.80
2023-05-12T14:36:24.505Z,12.79
2023-05-12T14:48:24.512Z,12.79
2023-05-12T15:00:24.447Z,12.78
2023-05-12T15:12:24.477Z,12.79
2023-05-12T15:24:24.444Z,12.78
2023-05-12T15:36:24.455Z,12.79
2023-05-12T15:48:24.550Z,12.79
2023-05-12T16:00:24.601Z,12.75
2023-05-12T16:12:24.520Z,12.75
2023-05-12T16:24:24.432Z,12.72
2023-05-12T16:36:24.527Z,12.69
2023-05-12T16:48:24.430Z,12.64
2023-05-12T17:00:24.527Z,12.63
2023-05-12T17:12:24.426Z,12.61
2023-05-12T17:24:24.433Z,12.58
2023-05-12T17:36:24.538Z,12.58
2023-05-12T17:48:24.539Z,12.57
2023-05-12T18:00:24.429Z,12.57
2023-05-12T18:12:24.437Z,12.56
2023-05-12T18:24:24.441Z,12.54
2023-05-12T18:36:24.527Z,12.54
2023-05-12T18:48:24.422Z,12.52
2023-05-12T19:00:24.481Z,12.51
2023-05-12T19:12:24.529Z,12.49
2023-05-12T19:24:24.504Z,12.48
2023-05-12T19:36:24.429Z,12.47
2023-05-12T19:48:24.553Z,12.45
2023-05-12T20:00:24.445Z,12.44
2023-05-12T20:12:24.555Z,12.42
2023-05-12T20:24:24.642Z,12.41
2023-05-12T20:36:24.550Z,12.40
2023-05-12T20:48:24.602Z,12.39
2023-05-12T21:00:24.522Z,12.38
2023-05-12T21:12:24.510Z,12.37
2023-05-12T21:24:24.647Z,12.35
2023-05-12T21:36:24.456Z,12.33
2023-05-12T21:48:24.535Z,12.33
2023-05-12T22:00:24.611Z,12.32
2023-05-12T22:12:24.521Z,12.30
2023-05-12T22:24:24.550Z,12.29
2023-05-12T22:36:24.543Z,12.28
2023-05-12T22:48:24.558Z,12.27
2023-05-12T23:00:24.563Z,12.26
2023-05-12T23:12:24.438Z,12.24
2023-05-12T23:24:24.547Z,12.23
2023-05-12T23:36:24.534Z,12.22
2023-05-12T23:48:24.556Z,12.20
